createdAt,value
2022-12-28T00:02:20.834Z,75.49
2022-12-28T00:04:48.483Z,75.49
2022-12-28T00:07:16.447Z,75.51
2022-12-28T00:09:44.205Z,75.39
2022-12-28T00:12:11.892Z,75.45
2022-12-28T00:14:39.729Z,75.57
2022-12-28T00:17:07.371Z,75.49
2022-12-28T00:19:35.321Z,75.22
2022-12-28T00:22:02.958Z,75.38
2022-12-28T00:24:31.130Z,75.40
2022-12-28T00:26:58.700Z,75.39
2022-12-28T00:29:26.267Z,74.62
2022-12-28T00:31:54.308Z,75.22
2022-12-28T00:34:22.003Z,75.03
2022-12-28T00:37:09.320Z,75.09
2022-12-28T00:39:37.467Z,74.92
2022-12-28T00:42:05.063Z,74.92
2022-12-28T00:44:33.049Z,74.47
2022-12-28T00:47:00.724Z,74.17
2022-12-28T00:49:28.419Z,74.56
2022-12-28T00:51:56.503Z,74.41
2022-12-28T00:54:24.670Z,74.63
2022-12-28T00:56:52.335Z,74.25
2022-12-28T00:59:19.912Z,74.26
2022-12-28T01:01:47.671Z,74.28
2022-12-28T01:04:15.384Z,74.29
2022-12-28T01:06:43.801Z,74.32
2022-12-28T01:09:11.410Z,74.29
2022-12-28T01:11:39.035Z,74.13
2022-12-28T01:14:06.632Z,74.25
2022-12-28T01:16:34.385Z,74.45
2022-12-28T01:19:02.433Z,74.36
2022-12-28T01:21:30.033Z,74.88
2022-12-28T01:23:57.606Z,75.22
2022-12-28T01:26:25.163Z,75.32
2022-12-28T01:28:54.236Z,75.70
2022-12-28T01:31:22.235Z,75.90
2022-12-28T01:33:49.834Z,76.53
2022-12-28T01:36:17.430Z,76.45
2022-12-28T01:38:45.075Z,76.56
2022-12-28T01:41:12.931Z,76.98
2022-12-28T01:43:40.907Z,77.28
2022-12-28T01:46:08.587Z,76.75
2022-12-28T01:48:36.144Z,77.42
2022-12-28T01:51:03.714Z,77.28
2022-12-28T01:53:31.338Z,77.51
2022-12-28T01:55:59.291Z,77.51
2022-12-28T01:58:26.872Z,77.51
2022-12-28T02:00:54.541Z,77.62
2022-12-28T02:03:22.337Z,77.98
2022-12-28T02:05:50.164Z,78.39
2022-12-28T02:08:18.090Z,77.71
2022-12-28T02:10:46.255Z,78.37
2022-12-28T02:13:14.264Z,78.31
2022-12-28T02:15:41.948Z,78.03
2022-12-28T02:18:09.586Z,78.14
2022-12-28T02:20:37.181Z,78.11
2022-12-28T02:23:04.785Z,78.28
2022-12-28T02:25:32.626Z,78.11
2022-12-28T02:28:00.411Z,78.28
2022-12-28T02:30:28.217Z,78.26
2022-12-28T02:32:56.268Z,77.71
2022-12-28T02:35:24.136Z,78.67
2022-12-28T02:37:51.726Z,78.25
2022-12-28T02:40:19.266Z,78.39
2022-12-28T02:42:47.165Z,78.74
2022-12-28T02:45:32.622Z,78.31
2022-12-28T02:48:22.862Z,78.32
2022-12-28T02:50:50.444Z,78.06
2022-12-28T02:53:17.997Z,78.45
2022-12-28T02:56:04.107Z,78.38
2022-12-28T02:58:31.670Z,78.28
2022-12-28T03:00:59.329Z,77.92
2022-12-28T03:03:27.222Z,78.44
2022-12-28T03:06:19.154Z,78.63
2022-12-28T03:08:47.216Z,78.23
2022-12-28T03:11:16.080Z,79.25
2022-12-28T03:13:47.145Z,78.76
2022-12-28T03:16:15.076Z,78.67
2022-12-28T03:19:00.343Z,78.85
2022-12-28T03:21:45.318Z,79.10
2022-12-28T03:24:30.182Z,78.93
2022-12-28T03:27:15.501Z,78.85
2022-12-28T03:30:00.382Z,79.38
2022-12-28T03:32:28.118Z,78.87
2022-12-28T03:34:55.671Z,79.16
2022-12-28T03:37:26.134Z,79.16
2022-12-28T03:39:53.719Z,78.96
2022-12-28T03:42:38.605Z,78.99
2022-12-28T03:48:03.216Z,79.38
2022-12-28T03:50:30.818Z,79.24
2022-12-28T03:52:58.420Z,79.18
2022-12-28T03:55:26.175Z,78.92
2022-12-28T03:57:54.249Z,78.75
2022-12-28T04:00:21.827Z,78.66
2022-12-28T04:02:49.524Z,78.65
2022-12-28T04:05:17.210Z,79.21
2022-12-28T04:07:45.008Z,79.08
2022-12-28T04:10:12.639Z,78.98
2022-12-28T04:12:40.586Z,79.27
2022-12-28T04:15:08.154Z,78.66
2022-12-28T04:17:35.743Z,78.74
2022-12-28T04:20:03.545Z,78.86
2022-12-28T04:22:31.149Z,79.25
2022-12-28T04:24:58.901Z,78.83
2022-12-28T04:27:26.526Z,79.05
2022-12-28T04:29:54.134Z,79.19
2022-12-28T04:32:21.842Z,79.03
2022-12-28T04:34:49.438Z,79.49
2022-12-28T04:37:17.004Z,79.46
2022-12-28T04:39:56.386Z,79.43
2022-12-28T04:42:24.773Z,79.66
2022-12-28T04:44:52.362Z,79.25
2022-12-28T04:47:19.943Z,79.61
2022-12-28T04:49:47.625Z,79.46
2022-12-28T04:52:15.224Z,79.31
2022-12-28T04:54:43.034Z,79.29
2022-12-28T04:57:10.648Z,79.46
2022-12-28T04:59:40.648Z,79.49
2022-12-28T05:02:08.745Z,79.03
2022-12-28T05:04:36.472Z,79.30
2022-12-28T05:07:04.091Z,78.96
2022-12-28T05:09:31.635Z,79.30
2022-12-28T05:11:59.644Z,78.96
2022-12-28T05:14:29.849Z,78.82
2022-12-28T05:16:59.969Z,79.13
2022-12-28T05:19:28.114Z,79.02
2022-12-28T05:21:55.686Z,79.21
2022-12-28T05:24:24.062Z,78.99
2022-12-28T05:26:51.689Z,79.64
2022-12-28T05:29:19.259Z,79.97
2022-12-28T05:31:46.887Z,79.85
2022-12-28T05:34:14.480Z,80.86
2022-12-28T05:36:43.516Z,80.86
2022-12-28T05:39:11.184Z,81.28
2022-12-28T05:41:38.825Z,81.29
2022-12-28T05:44:06.556Z,81.29
2022-12-28T05:46:34.204Z,81.21
2022-12-28T05:49:02.206Z,81.59
2022-12-28T05:51:29.785Z,81.56
2022-12-28T05:53:57.376Z,81.63
2022-12-28T05:56:25.009Z,81.90
2022-12-28T05:58:52.559Z,81.54
2022-12-28T06:01:20.554Z,81.38
2022-12-28T06:03:48.193Z,81.96
2022-12-28T06:06:15.784Z,82.01
2022-12-28T06:08:43.384Z,81.32
2022-12-28T06:11:11.020Z,81.51
2022-12-28T06:13:38.845Z,81.29
2022-12-28T06:16:06.446Z,81.55
2022-12-28T06:18:34.089Z,81.36
2022-12-28T06:21:01.855Z,81.88
2022-12-28T06:23:29.412Z,81.94
2022-12-28T06:25:57.440Z,82.10
2022-12-28T06:28:25.345Z,82.55
2022-12-28T06:30:53.129Z,82.56
2022-12-28T06:33:20.808Z,82.77
2022-12-28T06:35:48.374Z,82.72
2022-12-28T06:38:15.930Z,82.35
2022-12-28T06:43:31.142Z,82.89
2022-12-28T06:45:58.812Z,82.79
2022-12-28T06:48:26.793Z,82.64
2022-12-28T06:50:54.338Z,83.02
2022-12-28T06:53:21.950Z,83.31
2022-12-28T06:55:49.753Z,83.56
2022-12-28T06:58:17.531Z,83.81
2022-12-28T07:00:45.715Z,83.75
2022-12-28T07:03:13.388Z,84.04
2022-12-28T07:05:40.989Z,84.12
2022-12-28T07:08:12.535Z,84.22
2022-12-28T07:10:40.992Z,84.19
2022-12-28T07:13:08.948Z,84.13
2022-12-28T07:15:36.599Z,84.16
2022-12-28T07:18:04.544Z,84.55
2022-12-28T07:20:35.494Z,84.21
2022-12-28T07:23:07.754Z,84.77
2022-12-28T07:25:35.342Z,85.01
2022-12-28T07:28:02.923Z,84.95
2022-12-28T07:30:31.055Z,85.21
2022-12-28T07:32:59.741Z,85.01
2022-12-28T07:35:27.346Z,85.03
2022-12-28T07:37:54.951Z,85.26
2022-12-28T07:40:22.518Z,85.39
2022-12-28T07:42:50.469Z,84.97
2022-12-28T07:45:18.090Z,85.64
2022-12-28T07:47:45.670Z,85.48
2022-12-28T07:50:13.275Z,85.46
2022-12-28T07:52:40.887Z,85.21
2022-12-28T07:55:09.426Z,84.89
2022-12-28T07:57:37.364Z,85.25
2022-12-28T08:00:05.371Z,85.38
2022-12-28T08:02:32.989Z,85.11
2022-12-28T08:05:00.779Z,85.45
2022-12-28T08:07:28.682Z,85.41
2022-12-28T08:09:56.301Z,85.06
2022-12-28T08:12:23.937Z,85.13
2022-12-28T08:14:51.639Z,84.83
2022-12-28T08:17:21.326Z,84.91
2022-12-28T08:19:50.132Z,84.30
2022-12-28T08:22:18.101Z,84.29
2022-12-28T08:24:46.167Z,84.28
2022-12-28T08:27:13.795Z,84.72
2022-12-28T08:29:42.280Z,83.98
2022-12-28T08:32:09.918Z,84.11
2022-12-28T08:34:38.018Z,84.35
2022-12-28T08:37:06.399Z,83.94
2022-12-28T08:39:34.009Z,83.92
2022-12-28T08:42:01.735Z,84.21
2022-12-28T08:44:29.432Z,84.37
2022-12-28T08:46:58.259Z,84.09
2022-12-28T08:49:26.300Z,84.04
2022-12-28T08:51:54.142Z,83.93
2022-12-28T08:54:21.780Z,83.91
2022-12-28T08:56:50.105Z,84.13
2022-12-28T08:59:19.351Z,84.13
2022-12-28T09:01:47.593Z,84.19
2022-12-28T09:04:15.298Z,83.85
2022-12-28T09:06:42.980Z,83.96
2022-12-28T09:09:10.861Z,83.93
2022-12-28T09:11:38.762Z,83.72
2022-12-28T09:14:07.069Z,83.67
2022-12-28T09:16:34.736Z,83.76
2022-12-28T09:19:02.477Z,83.56
2022-12-28T09:21:30.300Z,83.80
2022-12-28T09:23:58.148Z,83.81
2022-12-28T09:26:26.245Z,83.53
2022-12-28T09:28:53.952Z,83.92
2022-12-28T09:31:21.723Z,83.52
2022-12-28T09:36:49.691Z,83.17
2022-12-28T09:39:17.907Z,83.20
2022-12-28T09:41:47.955Z,83.32
2022-12-28T09:44:15.667Z,83.25
2022-12-28T09:46:48.636Z,83.06
2022-12-28T09:49:16.942Z,83.00
2022-12-28T09:51:44.720Z,82.96
2022-12-28T09:54:12.385Z,82.47
2022-12-28T09:56:40.633Z,82.67
2022-12-28T09:59:08.414Z,82.83
2022-12-28T10:01:36.486Z,82.48
2022-12-28T10:04:04.585Z,82.83
2022-12-28T10:06:35.434Z,82.26
2022-12-28T10:09:03.270Z,82.24
2022-12-28T10:11:30.957Z,82.65
2022-12-28T10:13:59.223Z,82.48
2022-12-28T10:16:27.209Z,82.11
2022-12-28T10:18:55.040Z,81.99
2022-12-28T10:21:28.375Z,82.09
2022-12-28T10:26:47.977Z,81.89
2022-12-28T10:29:15.779Z,82.01
2022-12-28T10:31:44.032Z,82.00
2022-12-28T10:34:12.424Z,81.58
2022-12-28T10:36:41.285Z,81.86
2022-12-28T10:39:09.167Z,81.58
2022-12-28T10:41:37.540Z,81.81
2022-12-28T10:44:38.009Z,81.48
2022-12-28T10:46:55.147Z,81.58
2022-12-28T10:49:23.012Z,81.27
2022-12-28T10:51:50.721Z,80.82
2022-12-28T10:57:06.686Z,80.54
2022-12-28T10:59:34.557Z,80.98
2022-12-28T11:02:02.362Z,80.22
2022-12-28T11:03:21.812Z,81.09
2022-12-28T11:04:31.844Z,80.59
2022-12-28T11:07:00.614Z,80.40
2022-12-28T11:09:28.961Z,80.82
2022-12-28T11:11:56.865Z,79.90
2022-12-28T11:14:24.759Z,79.89
2022-12-28T11:16:53.453Z,79.76
2022-12-28T11:19:21.298Z,80.04
2022-12-28T11:21:49.867Z,79.76
2022-12-28T11:24:17.857Z,79.81
2022-12-28T11:26:45.947Z,79.84
2022-12-28T11:29:14.260Z,79.49
2022-12-28T11:31:42.385Z,79.33
2022-12-28T11:34:10.996Z,78.68
2022-12-28T11:36:38.838Z,78.74
2022-12-28T11:39:06.591Z,78.57
2022-12-28T11:41:34.941Z,78.62
2022-12-28T11:44:04.807Z,78.98
2022-12-28T11:46:32.923Z,78.84
2022-12-28T11:49:00.629Z,78.33
2022-12-28T11:51:28.847Z,78.09
2022-12-28T11:53:58.227Z,78.16
2022-12-28T11:56:26.044Z,78.42
2022-12-28T11:58:54.454Z,78.46
2022-12-28T12:01:22.174Z,78.61
2022-12-28T12:03:49.950Z,77.71
2022-12-28T12:06:18.087Z,77.87
2022-12-28T12:08:46.026Z,77.31
2022-12-28T12:11:14.150Z,77.56
2022-12-28T12:13:42.920Z,77.48
2022-12-28T12:16:10.801Z,77.57
2022-12-28T12:18:39.049Z,77.66
2022-12-28T12:21:13.304Z,77.35
2022-12-28T12:23:44.139Z,78.13
2022-12-28T12:26:12.288Z,77.50
2022-12-28T12:28:40.177Z,77.61
2022-12-28T12:31:08.110Z,77.48
2022-12-28T12:33:36.123Z,77.51
2022-12-28T12:36:04.503Z,77.39
2022-12-28T12:38:32.275Z,77.33
2022-12-28T12:41:00.584Z,78.28
2022-12-28T12:43:29.449Z,78.26
2022-12-28T12:45:57.326Z,78.56
2022-12-28T12:48:25.761Z,78.06
2022-12-28T12:50:54.591Z,78.29
2022-12-28T12:53:22.717Z,78.34
2022-12-28T12:55:50.667Z,77.94
2022-12-28T12:58:18.538Z,77.92
2022-12-28T13:00:48.837Z,78.21
2022-12-28T13:03:17.074Z,77.95
2022-12-28T13:05:45.159Z,77.65
2022-12-28T13:08:13.043Z,77.79
2022-12-28T13:10:41.164Z,78.12
2022-12-28T13:13:09.242Z,78.20
2022-12-28T13:15:37.008Z,78.67
2022-12-28T13:18:42.576Z,78.50
2022-12-28T13:20:53.063Z,78.91
2022-12-28T13:23:21.122Z,79.13
2022-12-28T13:25:48.993Z,79.28
2022-12-28T13:28:17.051Z,79.30
2022-12-28T13:30:45.222Z,79.37
2022-12-28T13:33:13.433Z,79.48
2022-12-28T13:35:41.262Z,80.16
2022-12-28T13:38:09.329Z,80.36
2022-12-28T13:40:37.503Z,80.35
2022-12-28T13:43:05.383Z,80.72
2022-12-28T13:45:33.326Z,80.78
2022-12-28T13:48:01.427Z,80.37
2022-12-28T13:50:29.137Z,80.59
2022-12-28T13:52:57.282Z,80.52
2022-12-28T13:55:25.666Z,80.70
2022-12-28T13:57:59.199Z,80.98
2022-12-28T14:00:28.226Z,80.82
2022-12-28T14:02:56.106Z,80.67
2022-12-28T14:05:24.163Z,80.54
2022-12-28T14:07:52.121Z,80.30
2022-12-28T14:10:19.938Z,80.72
2022-12-28T14:12:48.062Z,80.52
2022-12-28T14:15:15.957Z,80.32
2022-12-28T14:17:44.154Z,79.70
2022-12-28T14:20:11.901Z,80.04
2022-12-28T14:22:39.860Z,79.41
2022-12-28T14:25:08.257Z,78.98
2022-12-28T14:27:36.772Z,78.90
2022-12-28T14:30:04.950Z,79.39
2022-12-28T14:32:35.253Z,79.10
2022-12-28T14:35:07.018Z,78.89
2022-12-28T14:37:35.302Z,78.91
2022-12-28T14:40:03.280Z,79.05
2022-12-28T14:42:31.807Z,78.54
2022-12-28T14:45:02.324Z,78.80
2022-12-28T14:47:30.108Z,78.82
2022-12-28T14:49:58.465Z,78.37
2022-12-28T14:52:26.343Z,78.38
2022-12-28T14:54:54.356Z,79.01
2022-12-28T14:57:22.510Z,78.23
2022-12-28T14:59:50.911Z,78.15
2022-12-28T15:02:19.197Z,78.24
2022-12-28T15:04:47.404Z,78.16
2022-12-28T15:07:15.497Z,78.39
2022-12-28T15:09:45.382Z,78.07
2022-12-28T15:12:13.369Z,78.26
2022-12-28T15:14:42.169Z,78.41
2022-12-28T15:17:10.157Z,78.67
2022-12-28T15:19:38.228Z,78.73
2022-12-28T15:22:06.387Z,78.57
2022-12-28T15:24:34.733Z,78.54
2022-12-28T15:27:03.083Z,78.23
2022-12-28T15:32:19.384Z,78.18
2022-12-28T15:34:47.173Z,78.29
2022-12-28T15:37:15.588Z,78.55
2022-12-28T15:39:43.616Z,77.96
2022-12-28T15:42:11.834Z,78.43
2022-12-28T15:44:40.070Z,78.00
2022-12-28T15:47:08.316Z,77.50
2022-12-28T15:49:36.516Z,78.04
2022-12-28T15:52:04.326Z,77.76
2022-12-28T15:54:32.271Z,77.36
2022-12-28T15:57:00.388Z,77.68
2022-12-28T15:59:28.400Z,77.10
2022-12-28T16:01:56.730Z,76.96
2022-12-28T16:04:25.091Z,76.75
2022-12-28T16:06:53.003Z,76.67
2022-12-28T16:09:21.133Z,76.77
2022-12-28T16:11:54.863Z,76.79
2022-12-28T16:14:23.879Z,76.41
2022-12-28T16:16:51.833Z,76.83
2022-12-28T16:19:19.704Z,76.44
2022-12-28T16:21:48.034Z,76.89
2022-12-28T16:24:15.744Z,76.89
2022-12-28T16:26:44.348Z,76.79
2022-12-28T16:29:12.375Z,76.48
2022-12-28T16:31:40.388Z,76.31
2022-12-28T16:34:08.572Z,76.19
2022-12-28T16:36:36.755Z,76.07
2022-12-28T16:39:05.005Z,75.99
2022-12-28T16:41:36.553Z,76.22
2022-12-28T16:44:04.897Z,75.79
2022-12-28T16:46:33.010Z,75.49
2022-12-28T16:49:01.033Z,75.74
2022-12-28T16:51:29.564Z,75.56
2022-12-28T16:53:57.454Z,74.99
2022-12-28T16:56:25.260Z,74.91
2022-12-28T16:58:53.804Z,75.07
2022-12-28T17:01:21.754Z,75.05
2022-12-28T17:03:50.339Z,74.63
2022-12-28T17:06:18.661Z,74.79
2022-12-28T17:08:48.671Z,74.65
2022-12-28T17:11:18.516Z,74.81
2022-12-28T17:13:46.664Z,74.18
2022-12-28T17:16:15.196Z,73.99
2022-12-28T17:18:43.024Z,74.04
2022-12-28T17:21:10.995Z,73.79
2022-12-28T17:23:39.571Z,73.96
2022-12-28T17:26:07.648Z,74.20
2022-12-28T17:28:35.858Z,73.98
2022-12-28T17:31:03.822Z,74.01
2022-12-28T17:33:38.755Z,73.98
2022-12-28T17:36:07.728Z,73.85
2022-12-28T17:38:35.516Z,74.23
2022-12-28T17:41:03.994Z,74.47
2022-12-28T17:43:31.832Z,74.85
2022-12-28T17:45:59.711Z,74.84
2022-12-28T17:48:30.014Z,75.24
2022-12-28T17:50:59.272Z,75.55
2022-12-28T17:53:27.476Z,75.51
2022-12-28T17:55:55.357Z,75.48
2022-12-28T17:58:23.488Z,75.95
2022-12-28T18:00:51.881Z,76.31
2022-12-28T18:03:19.788Z,76.00
2022-12-28T18:05:48.189Z,76.45
2022-12-28T18:08:15.931Z,76.18
2022-12-28T18:10:43.804Z,76.26
2022-12-28T18:13:12.034Z,76.30
2022-12-28T18:15:40.318Z,76.00
2022-12-28T18:18:08.518Z,76.55
2022-12-28T18:20:36.453Z,76.46
2022-12-28T18:23:04.234Z,76.72
2022-12-28T18:25:32.408Z,76.68
2022-12-28T18:28:00.237Z,76.70
2022-12-28T18:30:28.464Z,76.95
2022-12-28T18:32:56.959Z,77.09
2022-12-28T18:35:27.051Z,76.86
2022-12-28T18:37:56.572Z,77.10
2022-12-28T18:40:24.663Z,77.29
2022-12-28T18:42:53.337Z,77.07
2022-12-28T18:45:21.146Z,77.48
2022-12-28T18:47:49.012Z,77.41
2022-12-28T18:50:18.053Z,77.06
2022-12-28T18:52:46.022Z,77.45
2022-12-28T18:55:14.280Z,77.24
2022-12-28T18:57:42.296Z,77.60
2022-12-28T19:00:13.409Z,77.97
2022-12-28T19:02:42.049Z,78.44
2022-12-28T19:05:10.135Z,78.44
2022-12-28T19:07:38.382Z,78.72
2022-12-28T19:10:16.246Z,78.78
2022-12-28T19:12:44.130Z,79.19
2022-12-28T19:15:12.152Z,79.32
2022-12-28T19:17:40.493Z,79.53
2022-12-28T19:20:08.365Z,79.68
2022-12-28T19:22:36.247Z,79.73
2022-12-28T19:25:04.435Z,79.85
2022-12-28T19:27:32.285Z,80.16
2022-12-28T19:30:00.454Z,80.42
2022-12-28T19:32:28.355Z,80.38
2022-12-28T19:34:56.246Z,80.59
2022-12-28T19:37:24.382Z,80.49
2022-12-28T19:39:57.532Z,80.80
2022-12-28T19:42:26.331Z,80.93
2022-12-28T19:44:54.326Z,80.66
2022-12-28T19:47:22.106Z,81.13
2022-12-28T19:49:50.229Z,81.02
2022-12-28T19:52:18.192Z,82.02
2022-12-28T19:54:47.018Z,81.76
2022-12-28T19:57:14.912Z,81.74
2022-12-28T19:59:42.864Z,81.49
2022-12-28T20:02:11.187Z,81.82
2022-12-28T20:04:39.745Z,82.13
2022-12-28T20:07:08.180Z,82.02
2022-12-28T20:09:38.595Z,82.34
2022-12-28T20:12:06.469Z,82.11
2022-12-28T20:14:34.829Z,82.28
2022-12-28T20:17:02.800Z,82.55
2022-12-28T20:19:30.605Z,82.21
2022-12-28T20:21:58.782Z,82.53
2022-12-28T20:24:26.700Z,82.82
2022-12-28T20:27:01.458Z,82.82
2022-12-28T20:29:29.804Z,83.13
2022-12-28T20:31:57.997Z,82.76
2022-12-28T20:34:25.885Z,82.79
2022-12-28T20:36:53.887Z,83.26
2022-12-28T20:39:21.682Z,83.32
2022-12-28T20:42:18.602Z,83.28
2022-12-28T20:44:46.294Z,82.74
2022-12-28T20:47:14.513Z,82.51
2022-12-28T20:49:42.771Z,83.12
2022-12-28T20:52:10.546Z,82.29
2022-12-28T20:54:38.306Z,82.84
2022-12-28T20:57:06.380Z,82.08
2022-12-28T20:59:34.254Z,81.88
2022-12-28T21:02:02.448Z,81.82
2022-12-28T21:04:30.680Z,82.15
2022-12-28T21:06:59.123Z,82.00
2022-12-28T21:09:27.306Z,81.89
2022-12-28T21:11:55.159Z,81.71
2022-12-28T21:14:23.072Z,81.41
2022-12-28T21:16:50.906Z,81.18
2022-12-28T21:19:19.563Z,81.07
2022-12-28T21:21:48.515Z,81.11
2022-12-28T21:24:16.322Z,81.15
2022-12-28T21:26:44.458Z,80.92
2022-12-28T21:29:12.458Z,81.25
2022-12-28T21:31:41.031Z,81.11
2022-12-28T21:34:08.831Z,80.92
2022-12-28T21:36:36.675Z,81.81
2022-12-28T21:39:04.704Z,81.62
2022-12-28T21:41:51.034Z,81.78
2022-12-28T21:44:19.684Z,81.50
2022-12-28T21:46:47.459Z,81.81
2022-12-28T21:49:15.697Z,81.90
2022-12-28T21:51:43.488Z,81.91
2022-12-28T21:54:11.570Z,82.23
2022-12-28T21:56:39.485Z,82.09
2022-12-28T21:59:07.316Z,82.47
2022-12-28T22:01:52.532Z,82.58
2022-12-28T22:04:38.172Z,82.75
2022-12-28T22:07:06.263Z,82.99
2022-12-28T22:09:51.152Z,82.45
2022-12-28T22:12:41.997Z,82.15
2022-12-28T22:15:27.359Z,82.72
2022-12-28T22:17:55.733Z,82.84
2022-12-28T22:20:23.490Z,82.32
2022-12-28T22:22:51.304Z,82.45
2022-12-28T22:25:19.241Z,82.63
2022-12-28T22:27:46.928Z,83.06
2022-12-28T22:30:14.941Z,83.23
2022-12-28T22:32:43.308Z,82.59
2022-12-28T22:35:11.063Z,83.03
2022-12-28T22:37:38.788Z,82.95
2022-12-28T22:40:06.876Z,82.61
2022-12-28T22:42:36.384Z,82.48
2022-12-28T22:45:04.159Z,82.59
2022-12-28T22:47:31.980Z,82.93
2022-12-28T22:49:59.651Z,82.62
2022-12-28T22:52:27.733Z,82.70
2022-12-28T22:54:57.002Z,83.32
2022-12-28T22:57:26.232Z,83.44
2022-12-28T22:59:54.008Z,84.03
2022-12-28T23:02:21.921Z,84.03
2022-12-28T23:04:50.097Z,84.03
2022-12-28T23:07:18.184Z,84.60
2022-12-28T23:09:45.897Z,84.75
2022-12-28T23:12:13.659Z,84.52
2022-12-28T23:14:59.686Z,84.78
2022-12-28T23:17:27.740Z,84.64
2022-12-28T23:20:13.016Z,84.21
2022-12-28T23:22:57.924Z,84.67
2022-12-28T23:25:43.553Z,84.54
2022-12-28T23:28:11.582Z,84.33
2022-12-28T23:30:39.957Z,84.39
2022-12-28T23:33:07.718Z,84.27
2022-12-28T23:35:35.818Z,84.16
2022-12-28T23:38:03.930Z,84.13
2022-12-28T23:40:31.987Z,84.39
2022-12-28T23:42:59.620Z,84.43
2022-12-28T23:45:27.399Z,84.14
2022-12-28T23:47:55.591Z,83.91
2022-12-28T23:50:23.642Z,83.72
2022-12-28T23:52:51.504Z,83.94
2022-12-28T23:55:19.236Z,83.98
2022-12-28T23:57:47.376Z,83.50
